createdAt,value
2023-03-02T00:00:52.619Z,15.10
2023-03-02T00:03:19.199Z,13.43
2023-03-02T00:05:47.303Z,14.13
2023-03-02T00:08:18.152Z,13.10
2023-03-02T00:10:45.080Z,13.63
2023-03-02T00:13:13.390Z,14.03
2023-03-02T00:15:40.076Z,13.17
2023-03-02T00:18:06.664Z,13.57
2023-03-02T00:20:34.853Z,14.00
2023-03-02T00:23:01.589Z,12.73
2023-03-02T00:25:28.890Z,14.67
2023-03-02T00:27:55.491Z,13.90
2023-03-02T00:30:22.146Z,14.37
2023-03-02T00:32:48.748Z,14.17
2023-03-02T00:35:15.573Z,13.70
2023-03-02T00:37:42.212Z,13.57
2023-03-02T00:40:09.797Z,13.93
2023-03-02T00:42:37.683Z,13.10
2023-03-02T00:47:44.107Z,13.47
2023-03-02T00:50:10.981Z,14.30
2023-03-02T00:52:37.646Z,13.93
2023-03-02T00:55:04.531Z,12.73
2023-03-02T00:57:31.178Z,13.43
2023-03-02T00:59:58.065Z,14.37
2023-03-02T01:02:24.672Z,14.37
2023-03-02T01:04:53.264Z,13.53
2023-03-02T01:07:26.316Z,13.67
2023-03-02T01:09:52.960Z,14.10
2023-03-02T01:12:19.955Z,13.63
2023-03-02T01:14:49.024Z,14.00
2023-03-02T01:17:15.773Z,14.13
2023-03-02T01:19:42.587Z,14.50
2023-03-02T01:22:09.869Z,14.87
2023-03-02T01:24:36.471Z,13.80
2023-03-02T01:27:03.091Z,14.17
2023-03-02T01:29:29.658Z,14.70
2023-03-02T01:31:56.339Z,14.37
2023-03-02T01:34:23.134Z,14.50
2023-03-02T01:36:49.715Z,13.07
2023-03-02T01:39:16.385Z,13.93
2023-03-02T01:41:46.609Z,14.03
2023-03-02T01:44:37.491Z,14.23
2023-03-02T01:47:26.933Z,15.57
2023-03-02T01:52:40.351Z,14.53
2023-03-02T01:55:11.273Z,14.93
2023-03-02T01:57:43.926Z,14.53
2023-03-02T02:00:19.518Z,14.90
2023-03-02T02:02:46.786Z,14.47
2023-03-02T02:05:19.342Z,14.73
2023-03-02T02:07:46.154Z,14.60
2023-03-02T02:10:13.413Z,14.80
2023-03-02T02:12:39.994Z,14.33
2023-03-02T02:15:07.171Z,14.67
2023-03-02T02:17:34.297Z,14.33
2023-03-02T02:20:25.369Z,14.13
2023-03-02T02:22:58.067Z,14.50
2023-03-02T02:25:30.391Z,15.50
2023-03-02T02:27:57.369Z,15.17
2023-03-02T02:33:05.638Z,15.83
2023-03-02T02:35:34.918Z,15.60
2023-03-02T02:38:07.804Z,15.23
2023-03-02T02:40:50.434Z,14.97
2023-03-02T02:43:19.685Z,14.07
2023-03-02T02:45:48.879Z,14.87
2023-03-02T02:48:18.253Z,14.77
2023-03-02T02:50:46.461Z,14.63
2023-03-02T02:53:26.044Z,15.03
2023-03-02T02:55:57.147Z,14.50
2023-03-02T02:58:41.826Z,14.73
2023-03-02T03:01:08.784Z,14.80
2023-03-02T03:03:39.277Z,16.53
2023-03-02T03:06:13.068Z,14.73
2023-03-02T03:08:45.769Z,15.10
2023-03-02T03:11:24.096Z,15.13
2023-03-02T03:14:10.306Z,15.50
2023-03-02T03:16:39.160Z,15.20
2023-03-02T03:19:12.133Z,15.60
2023-03-02T03:21:38.682Z,15.00
2023-03-02T03:24:05.672Z,14.10
2023-03-02T03:26:32.493Z,15.90
2023-03-02T03:28:59.443Z,14.97
2023-03-02T03:31:27.950Z,14.93
2023-03-02T03:33:56.144Z,14.83
2023-03-02T03:36:22.964Z,15.00
2023-03-02T03:38:49.619Z,15.30
2023-03-02T03:41:16.312Z,15.57
2023-03-02T03:43:42.990Z,15.47
2023-03-02T03:46:09.592Z,15.47
2023-03-02T03:48:36.262Z,15.33
2023-03-02T03:51:02.917Z,15.10
2023-03-02T03:53:29.617Z,15.27
2023-03-02T03:58:35.514Z,14.87
2023-03-02T04:01:02.066Z,15.13
2023-03-02T04:03:28.979Z,14.70
2023-03-02T04:05:55.753Z,14.47
2023-03-02T04:08:22.518Z,14.80
2023-03-02T04:10:49.074Z,15.10
2023-03-02T04:13:15.992Z,15.47
2023-03-02T04:15:44.406Z,15.00
2023-03-02T04:18:12.510Z,14.63
2023-03-02T04:20:39.115Z,14.50
2023-03-02T04:23:05.717Z,15.27
2023-03-02T04:25:32.284Z,14.73
2023-03-02T04:27:59.305Z,14.23
2023-03-02T04:32:58.158Z,15.37
2023-03-02T04:35:25.584Z,15.60
2023-03-02T04:37:52.624Z,15.33
2023-03-02T04:40:19.333Z,15.60
2023-03-02T04:42:46.103Z,14.90
2023-03-02T04:45:13.528Z,16.37
2023-03-02T04:47:40.615Z,14.83
2023-03-02T04:50:08.755Z,14.57
2023-03-02T04:52:35.378Z,15.23
2023-03-02T04:55:02.159Z,15.23
2023-03-02T04:57:28.705Z,15.67
2023-03-02T04:59:55.468Z,16.33
2023-03-02T05:02:22.138Z,14.23
2023-03-02T05:04:49.047Z,15.33
2023-03-02T05:07:15.662Z,14.67
2023-03-02T05:09:42.447Z,15.97
2023-03-02T05:12:08.983Z,15.87
2023-03-02T05:14:35.634Z,14.77
2023-03-02T05:17:02.291Z,15.30
2023-03-02T05:19:28.990Z,16.07
2023-03-02T05:21:56.617Z,14.90
2023-03-02T05:24:23.139Z,15.20
2023-03-02T05:26:49.820Z,14.80
2023-03-02T05:31:48.307Z,15.00
2023-03-02T05:34:16.952Z,15.43
2023-03-02T05:36:45.332Z,15.37
2023-03-02T05:39:12.605Z,16.03
2023-03-02T05:41:39.761Z,16.40
2023-03-02T05:44:09.605Z,16.80
2023-03-02T05:46:36.826Z,15.73
2023-03-02T05:49:03.629Z,15.87
2023-03-02T05:51:30.228Z,16.00
2023-03-02T05:53:56.881Z,16.67
2023-03-02T05:56:23.528Z,15.37
2023-03-02T05:58:50.052Z,15.93
2023-03-02T06:01:16.643Z,15.63
2023-03-02T06:03:43.543Z,15.47
2023-03-02T06:06:14.182Z,15.77
2023-03-02T06:08:42.215Z,16.17
2023-03-02T06:11:09.269Z,15.13
2023-03-02T06:13:36.293Z,15.80
2023-03-02T06:16:03.472Z,16.37
2023-03-02T06:18:30.166Z,15.63
2023-03-02T06:20:56.871Z,16.00
2023-03-02T06:23:23.550Z,18.63
2023-03-02T06:25:50.178Z,21.63
2023-03-02T06:28:19.908Z,18.77
2023-03-02T06:30:48.813Z,53.07
2023-03-02T06:33:21.198Z,18.57
2023-03-02T06:35:48.239Z,21.07
2023-03-02T06:38:15.240Z,16.63
2023-03-02T06:43:19.310Z,17.90
2023-03-02T06:48:19.197Z,15.57
2023-03-02T06:50:45.798Z,16.50
2023-03-02T06:53:12.331Z,15.67
2023-03-02T06:55:38.974Z,15.90
2023-03-02T06:58:05.546Z,17.40
2023-03-02T07:03:11.025Z,17.50
2023-03-02T07:05:37.777Z,16.70
2023-03-02T07:08:04.763Z,17.23
2023-03-02T07:10:31.385Z,17.23
2023-03-02T07:12:57.977Z,16.60
2023-03-02T07:15:24.849Z,29.23
2023-03-02T07:17:51.491Z,19.07
2023-03-02T07:20:18.576Z,18.10
2023-03-02T07:22:45.998Z,17.50
2023-03-02T07:25:12.813Z,18.33
2023-03-02T07:27:40.034Z,18.60
2023-03-02T07:30:07.350Z,18.30
2023-03-02T07:32:33.988Z,17.43
2023-03-02T07:37:31.841Z,17.63
2023-03-02T07:40:00.564Z,16.00
2023-03-02T07:42:27.270Z,17.67
2023-03-02T07:44:54.641Z,16.70
2023-03-02T07:47:21.934Z,16.30
2023-03-02T07:49:48.456Z,17.37
2023-03-02T07:52:15.247Z,16.93
2023-03-02T07:54:41.896Z,17.00
2023-03-02T07:57:08.569Z,16.40
2023-03-02T07:59:35.163Z,16.33
2023-03-02T08:02:01.756Z,15.87
2023-03-02T08:12:12.801Z,13.93
2023-03-02T08:14:39.418Z,14.57
2023-03-02T08:17:08.306Z,14.73
2023-03-02T08:19:34.917Z,14.67
2023-03-02T08:22:02.313Z,14.53
2023-03-02T08:24:28.903Z,13.97
2023-03-02T08:26:56.028Z,13.73
2023-03-02T08:29:24.630Z,13.60
2023-03-02T08:31:51.289Z,13.63
2023-03-02T08:36:50.293Z,13.60
2023-03-02T08:39:16.907Z,13.17
2023-03-02T08:41:43.452Z,13.53
2023-03-02T08:44:10.505Z,13.87
2023-03-02T08:46:37.042Z,14.00
2023-03-02T08:49:03.615Z,13.53
2023-03-02T08:51:30.246Z,12.63
2023-03-02T08:56:31.145Z,12.47
2023-03-02T08:59:03.890Z,13.50
2023-03-02T09:04:11.486Z,13.20
2023-03-02T09:06:41.502Z,13.27
2023-03-02T09:09:09.703Z,13.57
2023-03-02T09:11:36.725Z,12.67
2023-03-02T09:14:03.831Z,13.43
2023-03-02T09:16:30.471Z,13.13
2023-03-02T09:18:57.086Z,13.53
2023-03-02T09:21:25.410Z,14.07
2023-03-02T09:23:58.217Z,13.17
2023-03-02T09:26:26.653Z,12.97
2023-03-02T09:28:53.350Z,13.57
2023-03-02T09:31:20.041Z,13.37
2023-03-02T09:33:46.697Z,12.90
2023-03-02T09:36:22.602Z,13.30
2023-03-02T09:38:49.232Z,13.10
2023-03-02T09:41:39.348Z,12.67
2023-03-02T09:44:22.994Z,13.23
2023-03-02T09:49:48.153Z,13.00
2023-03-02T09:52:40.492Z,13.80
2023-03-02T09:55:19.738Z,13.13
2023-03-02T09:57:47.234Z,13.10
2023-03-02T10:00:20.380Z,14.10
2023-03-02T10:02:54.170Z,13.50
2023-03-02T10:05:24.605Z,12.87
2023-03-02T10:07:51.716Z,13.33
2023-03-02T10:10:18.262Z,12.90
2023-03-02T10:13:15.706Z,13.27
2023-03-02T10:15:47.966Z,12.47
2023-03-02T10:18:29.645Z,12.90
2023-03-02T10:21:33.930Z,12.57
2023-03-02T10:24:34.224Z,13.37
2023-03-02T10:27:19.165Z,13.17
2023-03-02T10:29:55.003Z,12.37
2023-03-02T10:32:24.777Z,12.63
2023-03-02T10:34:53.340Z,12.43
2023-03-02T10:37:25.440Z,12.40
2023-03-02T10:39:52.911Z,12.43
2023-03-02T10:42:24.511Z,12.13
2023-03-02T10:45:00.428Z,13.07
2023-03-02T10:47:29.315Z,12.90
2023-03-02T10:49:57.717Z,12.50
2023-03-02T10:52:27.269Z,12.00
2023-03-02T10:55:13.911Z,11.83
2023-03-02T10:57:45.031Z,12.43
2023-03-02T11:00:17.819Z,11.40
2023-03-02T11:02:54.394Z,12.60
2023-03-02T11:05:28.068Z,12.80
2023-03-02T11:07:56.009Z,12.47
2023-03-02T11:10:25.903Z,12.67
2023-03-02T11:12:54.126Z,11.90
2023-03-02T11:15:32.466Z,12.20
2023-03-02T11:18:09.943Z,12.03
2023-03-02T11:20:42.208Z,11.70
2023-03-02T11:26:26.955Z,12.00
2023-03-02T11:29:11.563Z,12.93
2023-03-02T11:31:47.667Z,12.00
2023-03-02T11:34:20.443Z,11.90
2023-03-02T11:40:11.970Z,11.43
2023-03-02T11:42:41.236Z,11.50
2023-03-02T11:45:13.548Z,12.63
2023-03-02T11:48:00.993Z,12.07
2023-03-02T11:50:31.115Z,11.77
2023-03-02T11:53:00.234Z,12.07
2023-03-02T11:55:31.661Z,12.27
2023-03-02T12:00:49.714Z,12.20
2023-03-02T12:03:16.165Z,11.97
2023-03-02T12:06:07.784Z,11.23
2023-03-02T12:08:50.038Z,12.53
2023-03-02T12:11:16.534Z,12.00
2023-03-02T12:13:45.604Z,12.00
2023-03-02T12:16:33.987Z,12.37
2023-03-02T12:19:18.066Z,11.93
2023-03-02T12:21:57.801Z,12.70
2023-03-02T12:24:27.632Z,11.67
2023-03-02T12:27:25.684Z,11.73
2023-03-02T12:30:15.796Z,10.77
2023-03-02T12:32:58.352Z,11.53
2023-03-02T12:35:25.784Z,11.70
2023-03-02T12:40:39.759Z,11.10
2023-03-02T12:43:16.795Z,11.90
2023-03-02T12:46:04.475Z,11.30
2023-03-02T12:48:54.760Z,10.90
2023-03-02T12:54:07.577Z,10.77
2023-03-02T12:56:34.754Z,11.13
2023-03-02T12:59:01.489Z,10.53
2023-03-02T13:01:30.790Z,11.97
2023-03-02T13:06:38.602Z,10.90
2023-03-02T13:09:05.288Z,11.17
2023-03-02T13:11:36.931Z,11.53
2023-03-02T13:14:20.454Z,11.10
2023-03-02T13:17:04.431Z,11.63
2023-03-02T13:19:32.325Z,11.00
2023-03-02T13:24:56.121Z,10.43
2023-03-02T13:27:24.318Z,10.53
2023-03-02T13:29:55.791Z,11.10
2023-03-02T13:32:26.584Z,10.77
2023-03-02T13:34:57.484Z,10.80
2023-03-02T13:37:43.694Z,11.67
2023-03-02T13:40:22.601Z,11.40
2023-03-02T13:42:49.307Z,11.03
2023-03-02T13:45:22.245Z,10.83
2023-03-02T13:47:49.103Z,10.70
2023-03-02T13:50:27.436Z,10.77
2023-03-02T13:53:00.635Z,10.10
2023-03-02T13:55:27.695Z,10.80
2023-03-02T13:57:55.822Z,11.17
2023-03-02T14:00:27.463Z,10.83
2023-03-02T14:02:53.970Z,10.40
2023-03-02T14:05:24.067Z,10.90
2023-03-02T14:10:22.190Z,11.00
2023-03-02T14:12:56.303Z,11.60
2023-03-02T14:15:23.319Z,11.17
2023-03-02T14:17:49.957Z,11.20
2023-03-02T14:20:19.635Z,11.20
2023-03-02T14:22:47.379Z,11.87
2023-03-02T14:25:14.844Z,11.37
2023-03-02T14:27:42.462Z,12.07
2023-03-02T14:30:19.114Z,11.67
2023-03-02T14:32:46.012Z,11.50
2023-03-02T14:37:48.346Z,11.30
2023-03-02T14:42:56.904Z,10.97
2023-03-02T14:45:24.118Z,10.53
2023-03-02T14:47:50.657Z,11.73
2023-03-02T14:50:17.435Z,12.37
2023-03-02T14:52:55.015Z,16.73
2023-03-02T14:55:29.607Z,11.93
2023-03-02T14:58:04.070Z,11.57
2023-03-02T15:00:30.817Z,11.80
2023-03-02T15:02:59.206Z,11.27
2023-03-02T15:05:25.846Z,10.90
2023-03-02T15:07:53.757Z,10.67
2023-03-02T15:10:22.277Z,11.40
2023-03-02T15:12:48.898Z,10.83
2023-03-02T15:15:15.592Z,11.27
2023-03-02T15:17:42.369Z,11.13
2023-03-02T15:20:14.294Z,11.27
2023-03-02T15:22:40.811Z,11.53
2023-03-02T15:25:08.235Z,11.17
2023-03-02T15:27:34.871Z,10.80
2023-03-02T15:30:01.417Z,11.23
2023-03-02T15:32:28.051Z,11.43
2023-03-02T15:34:54.591Z,11.17
2023-03-02T15:37:21.194Z,11.63
2023-03-02T15:39:53.313Z,11.23
2023-03-02T15:42:19.863Z,10.90
2023-03-02T15:44:46.397Z,11.73
2023-03-02T15:47:13.029Z,12.37
2023-03-02T15:49:39.871Z,10.77
2023-03-02T15:52:06.484Z,12.10
2023-03-02T15:54:33.656Z,11.10
2023-03-02T15:57:00.250Z,11.97
2023-03-02T15:59:29.878Z,10.77
2023-03-02T16:01:59.947Z,11.23
2023-03-02T16:04:27.276Z,11.97
2023-03-02T16:06:55.004Z,11.67
2023-03-02T16:09:22.637Z,11.40
2023-03-02T16:11:49.923Z,11.43
2023-03-02T16:16:48.307Z,11.33
2023-03-02T16:21:51.074Z,11.70
2023-03-02T16:24:17.690Z,11.10
2023-03-02T16:26:45.066Z,11.30
2023-03-02T16:29:13.144Z,11.43
2023-03-02T16:34:14.575Z,11.60
2023-03-02T16:36:42.261Z,12.13
2023-03-02T16:41:43.513Z,11.53
2023-03-02T16:44:11.739Z,12.00
2023-03-02T16:46:40.094Z,13.17
2023-03-02T16:49:07.004Z,11.73
2023-03-02T16:51:33.568Z,11.50
2023-03-02T16:54:00.102Z,11.93
2023-03-02T16:56:26.750Z,12.70
2023-03-02T17:01:24.884Z,12.10
2023-03-02T17:03:52.128Z,12.57
2023-03-02T17:11:32.013Z,12.03
2023-03-02T17:13:58.796Z,12.20
2023-03-02T17:16:25.485Z,12.00
2023-03-02T17:18:52.135Z,12.83
2023-03-02T17:21:18.872Z,12.93
2023-03-02T17:23:48.156Z,13.00
2023-03-02T17:28:54.498Z,13.73
2023-03-02T17:31:21.334Z,12.97
2023-03-02T17:33:48.014Z,11.97
2023-03-02T17:36:15.924Z,13.23
2023-03-02T17:38:42.631Z,13.20
2023-03-02T17:41:11.055Z,12.77
2023-03-02T17:43:39.697Z,14.20
2023-03-02T17:46:11.097Z,14.33
2023-03-02T17:48:37.764Z,14.20
2023-03-02T17:51:04.486Z,14.23
2023-03-02T17:53:31.099Z,13.87
2023-03-02T17:55:57.644Z,13.27
2023-03-02T18:00:56.785Z,13.47
2023-03-02T18:05:55.744Z,14.37
2023-03-02T18:08:22.817Z,13.67
2023-03-02T18:10:50.240Z,13.60
2023-03-02T18:13:17.454Z,29.17
2023-03-02T18:15:44.440Z,15.37
2023-03-02T18:18:12.728Z,16.93
2023-03-02T18:20:39.293Z,17.67
2023-03-02T18:23:05.822Z,18.00
2023-03-02T18:28:09.520Z,23.10
2023-03-02T18:30:36.130Z,70.53
2023-03-02T18:33:02.718Z,54.03
2023-03-02T18:35:29.402Z,15.57
2023-03-02T18:37:55.992Z,14.73
2023-03-02T18:40:22.539Z,14.30
2023-03-02T18:42:49.197Z,14.80
2023-03-02T18:45:28.060Z,14.30
2023-03-02T18:47:55.324Z,14.43
2023-03-02T18:50:22.685Z,14.63
2023-03-02T18:52:53.049Z,14.57
2023-03-02T18:55:24.512Z,17.67
2023-03-02T18:57:53.952Z,16.20
2023-03-02T19:00:27.363Z,16.03
2023-03-02T19:02:54.792Z,17.00
2023-03-02T19:05:21.456Z,16.53
2023-03-02T19:07:48.086Z,16.37
2023-03-02T19:10:15.816Z,17.10
2023-03-02T19:12:42.390Z,17.27
2023-03-02T19:15:13.163Z,16.13
2023-03-02T19:17:42.681Z,18.07
2023-03-02T19:20:15.194Z,16.03
2023-03-02T19:22:41.740Z,15.47
2023-03-02T19:25:08.835Z,17.40
2023-03-02T19:30:12.122Z,19.67
2023-03-02T19:32:38.792Z,26.70
2023-03-02T19:35:05.940Z,18.17
2023-03-02T19:37:33.513Z,22.63
2023-03-02T19:40:00.060Z,18.97
2023-03-02T19:42:26.768Z,16.67
2023-03-02T19:44:53.305Z,18.87
2023-03-02T19:47:19.873Z,18.13
2023-03-02T19:49:46.377Z,17.70
2023-03-02T19:52:12.881Z,18.03
2023-03-02T19:54:39.411Z,17.47
2023-03-02T19:57:07.867Z,17.17
2023-03-02T19:59:36.632Z,17.90
2023-03-02T20:02:03.348Z,18.57
2023-03-02T20:04:29.911Z,17.53
2023-03-02T20:06:56.871Z,16.13
2023-03-02T20:09:24.327Z,16.67
2023-03-02T20:11:51.098Z,17.03
2023-03-02T20:14:32.889Z,16.97
2023-03-02T20:17:00.266Z,17.93
2023-03-02T20:19:26.862Z,17.93
2023-03-02T20:21:53.406Z,16.23
2023-03-02T20:24:20.165Z,16.43
2023-03-02T20:26:47.001Z,16.13
2023-03-02T20:29:14.204Z,17.77
2023-03-02T20:31:41.032Z,19.03
2023-03-02T20:34:12.458Z,16.57
2023-03-02T20:36:39.117Z,16.70
2023-03-02T20:39:31.500Z,16.37
2023-03-02T20:41:59.005Z,17.73
2023-03-02T20:44:26.309Z,18.37
2023-03-02T20:46:56.096Z,17.70
2023-03-02T20:52:03.247Z,18.33
2023-03-02T20:54:34.036Z,17.00
2023-03-02T20:57:00.645Z,17.83
2023-03-02T20:59:27.946Z,17.90
2023-03-02T21:04:33.295Z,19.30
2023-03-02T21:07:00.129Z,18.63
2023-03-02T21:09:26.683Z,19.77
2023-03-02T21:14:32.566Z,17.97
2023-03-02T21:17:00.339Z,20.97
2023-03-02T21:19:29.616Z,19.07
2023-03-02T21:21:57.213Z,20.70
2023-03-02T21:24:23.833Z,37.43
2023-03-02T21:26:52.346Z,25.93
2023-03-02T21:29:21.885Z,17.83
2023-03-02T21:31:48.639Z,17.60
2023-03-02T21:34:16.475Z,18.80
2023-03-02T21:36:43.585Z,18.23
2023-03-02T21:39:11.909Z,17.33
2023-03-02T21:44:16.812Z,16.73
2023-03-02T21:46:43.558Z,17.17
2023-03-02T21:49:11.460Z,16.90
2023-03-02T21:51:38.021Z,18.67
2023-03-02T21:54:04.785Z,16.80
2023-03-02T21:56:31.300Z,17.37
2023-03-02T21:58:58.013Z,18.07
2023-03-02T22:01:26.516Z,18.73
2023-03-02T22:03:53.511Z,17.17
2023-03-02T22:06:25.705Z,17.70
2023-03-02T22:08:52.990Z,18.30
2023-03-02T22:11:28.492Z,18.27
2023-03-02T22:13:58.508Z,17.13
2023-03-02T22:16:28.241Z,17.70
2023-03-02T22:18:59.778Z,17.03
2023-03-02T22:21:38.248Z,17.90
2023-03-02T22:24:13.840Z,17.87
2023-03-02T22:26:43.890Z,17.30
2023-03-02T22:29:39.513Z,18.10
2023-03-02T22:32:17.158Z,17.00
2023-03-02T22:34:45.437Z,17.00
2023-03-02T22:37:14.900Z,16.50
2023-03-02T22:39:42.392Z,16.03
2023-03-02T22:42:18.545Z,17.63
2023-03-02T22:45:10.165Z,17.43
2023-03-02T22:47:36.680Z,17.60
2023-03-02T22:50:18.824Z,18.10
2023-03-02T22:52:45.416Z,17.57
2023-03-02T22:55:35.380Z,17.17
2023-03-02T22:58:45.174Z,17.20
2023-03-02T23:01:25.064Z,17.50
2023-03-02T23:04:02.271Z,18.20
2023-03-02T23:09:06.364Z,16.73
2023-03-02T23:11:38.434Z,17.43
2023-03-02T23:14:27.405Z,17.90
2023-03-02T23:17:01.455Z,18.27
2023-03-02T23:19:30.260Z,18.23
2023-03-02T23:21:58.066Z,18.53
2023-03-02T23:24:25.341Z,17.23
2023-03-02T23:26:53.276Z,18.37
2023-03-02T23:29:20.540Z,17.87
2023-03-02T23:31:47.798Z,18.40
2023-03-02T23:34:14.691Z,17.27
2023-03-02T23:36:41.477Z,18.63
2023-03-02T23:39:09.786Z,17.40
2023-03-02T23:41:37.208Z,17.00
2023-03-02T23:44:04.886Z,18.97
2023-03-02T23:46:31.936Z,17.73
2023-03-02T23:48:58.649Z,17.87
2023-03-02T23:51:26.243Z,17.93
2023-03-02T23:53:54.129Z,17.73
2023-03-02T23:56:21.406Z,18.27
2023-03-02T23:58:48.209Z,17.27
